sensor_id;sensor_type;location;lat;lon;timestamp;P1;durP1;ratioP1;P2;durP2;ratioP2
15573;SDS011;7888;46.748;8.102;2024-01-15T00:02:08;3.23;;;2.57;;
15573;SDS011;7888;46.748;8.102;2024-01-15T00:04:38;2.70;;;2.43;;
15573;SDS011;7888;46.748;8.102;2024-01-15T00:07:05;2.97;;;2.60;;
15573;SDS011;7888;46.748;8.102;2024-01-15T00:09:31;3.10;;;2.40;;
15573;SDS011;7888;46.748;8.102;2024-01-15T00:11:58;2.87;;;2.50;;
15573;SDS011;7888;46.748;8.102;2024-01-15T00:14:24;3.33;;;2.57;;
15573;SDS011;7888;46.748;8.102;2024-01-15T00:16:50;3.07;;;2.60;;
15573;SDS011;7888;46.748;8.102;2024-01-15T00:19:17;3.50;;;2.60;;
15573;SDS011;7888;46.748;8.102;2024-01-15T00:21:43;2.50;;;2.30;;
15573;SDS011;7888;46.748;8.102;2024-01-15T00:24:09;3.47;;;2.80;;
15573;SDS011;7888;46.748;8.102;2024-01-15T00:26:35;2.70;;;2.50;;
15573;SDS011;7888;46.748;8.102;2024-01-15T00:29:01;3.27;;;2.50;;
15573;SDS011;7888;46.748;8.102;2024-01-15T00:31:28;3.03;;;2.60;;
15573;SDS011;7888;46.748;8.102;2024-01-15T00:33:55;4.13;;;2.73;;
15573;SDS011;7888;46.748;8.102;2024-01-15T00:36:22;3.30;;;2.77;;
15573;SDS011;7888;46.748;8.102;2024-01-15T00:38:48;3.73;;;2.80;;
15573;SDS011;7888;46.748;8.102;2024-01-15T00:41:14;2.87;;;2.47;;
15573;SDS011;7888;46.748;8.102;2024-01-15T00:43:40;2.93;;;2.63;;
15573;SDS011;7888;46.748;8.102;2024-01-15T00:46:06;2.93;;;2.60;;
15573;SDS011;7888;46.748;8.102;2024-01-15T00:48:32;2.67;;;2.43;;
15573;SDS011;7888;46.748;8.102;2024-01-15T00:50:58;4.87;;;3.20;;
15573;SDS011;7888;46.748;8.102;2024-01-15T00:53:25;3.97;;;2.77;;
15573;SDS011;7888;46.748;8.102;2024-01-15T00:55:51;4.10;;;2.80;;
15573;SDS011;7888;46.748;8.102;2024-01-15T00:58:16;3.00;;;2.40;;
15573;SDS011;7888;46.748;8.102;2024-01-15T01:00:43;3.77;;;3.20;;
15573;SDS011;7888;46.748;8.102;2024-01-15T01:03:09;3.03;;;2.60;;
15573;SDS011;7888;46.748;8.102;2024-01-15T01:05:34;4.50;;;2.70;;
15573;SDS011;7888;46.748;8.102;2024-01-15T01:08:00;3.50;;;2.80;;
15573;SDS011;7888;46.748;8.102;2024-01-15T01:10:27;2.73;;;2.53;;
15573;SDS011;7888;46.748;8.102;2024-01-15T01:12:53;3.70;;;2.90;;
15573;SDS011;7888;46.748;8.102;2024-01-15T01:15:18;3.90;;;3.00;;
15573;SDS011;7888;46.748;8.102;2024-01-15T01:17:45;3.60;;;2.90;;
15573;SDS011;7888;46.748;8.102;2024-01-15T01:20:11;2.97;;;2.67;;
15573;SDS011;7888;46.748;8.102;2024-01-15T01:22:37;3.40;;;3.10;;
15573;SDS011;7888;46.748;8.102;2024-01-15T01:25:03;3.20;;;2.80;;
15573;SDS011;7888;46.748;8.102;2024-01-15T01:27:29;3.67;;;2.93;;
15573;SDS011;7888;46.748;8.102;2024-01-15T01:29:55;3.50;;;3.13;;
15573;SDS011;7888;46.748;8.102;2024-01-15T01:32:20;3.23;;;2.90;;
15573;SDS011;7888;46.748;8.102;2024-01-15T01:34:46;3.00;;;2.60;;
15573;SDS011;7888;46.748;8.102;2024-01-15T01:37:12;3.30;;;2.80;;
15573;SDS011;7888;46.748;8.102;2024-01-15T01:39:41;2.60;;;2.30;;
15573;SDS011;7888;46.748;8.102;2024-01-15T01:42:08;3.00;;;2.60;;
15573;SDS011;7888;46.748;8.102;2024-01-15T01:44:34;3.30;;;3.00;;
15573;SDS011;7888;46.748;8.102;2024-01-15T01:47:00;3.20;;;2.90;;
15573;SDS011;7888;46.748;8.102;2024-01-15T01:49:27;3.73;;;3.40;;
15573;SDS011;7888;46.748;8.102;2024-01-15T01:51:54;2.87;;;2.67;;
15573;SDS011;7888;46.748;8.102;2024-01-15T01:54:25;3.90;;;2.87;;
15573;SDS011;7888;46.748;8.102;2024-01-15T01:56:56;3.33;;;3.03;;
15573;SDS011;7888;46.748;8.102;2024-01-15T01:59:22;2.93;;;2.50;;
15573;SDS011;7888;46.748;8.102;2024-01-15T02:01:51;3.33;;;2.60;;
15573;SDS011;7888;46.748;8.102;2024-01-15T02:04:23;3.27;;;2.50;;
15573;SDS011;7888;46.748;8.102;2024-01-15T02:06:50;3.67;;;2.43;;
15573;SDS011;7888;46.748;8.102;2024-01-15T02:09:17;2.23;;;1.93;;
15573;SDS011;7888;46.748;8.102;2024-01-15T02:11:43;3.33;;;2.53;;
15573;SDS011;7888;46.748;8.102;2024-01-15T02:14:12;3.30;;;2.40;;
15573;SDS011;7888;46.748;8.102;2024-01-15T02:16:38;3.20;;;2.43;;
15573;SDS011;7888;46.748;8.102;2024-01-15T02:19:03;3.00;;;2.57;;
15573;SDS011;7888;46.748;8.102;2024-01-15T02:21:29;3.10;;;2.80;;
15573;SDS011;7888;46.748;8.102;2024-01-15T02:23:56;3.13;;;2.53;;
15573;SDS011;7888;46.748;8.102;2024-01-15T02:26:23;3.30;;;2.87;;
15573;SDS011;7888;46.748;8.102;2024-01-15T02:28:49;3.20;;;2.90;;
15573;SDS011;7888;46.748;8.102;2024-01-15T02:31:16;3.13;;;2.90;;
15573;SDS011;7888;46.748;8.102;2024-01-15T02:33:43;3.57;;;2.60;;
15573;SDS011;7888;46.748;8.102;2024-01-15T02:36:11;3.03;;;2.70;;
15573;SDS011;7888;46.748;8.102;2024-01-15T02:38:37;2.93;;;2.43;;
15573;SDS011;7888;46.748;8.102;2024-01-15T02:41:03;3.33;;;2.70;;
15573;SDS011;7888;46.748;8.102;2024-01-15T02:43:29;2.90;;;2.60;;
15573;SDS011;7888;46.748;8.102;2024-01-15T02:45:55;3.53;;;2.33;;
15573;SDS011;7888;46.748;8.102;2024-01-15T02:48:20;2.73;;;2.53;;
15573;SDS011;7888;46.748;8.102;2024-01-15T02:50:46;3.43;;;2.60;;
15573;SDS011;7888;46.748;8.102;2024-01-15T02:53:12;3.20;;;2.60;;
15573;SDS011;7888;46.748;8.102;2024-01-15T02:55:38;2.73;;;2.40;;
15573;SDS011;7888;46.748;8.102;2024-01-15T02:58:03;3.57;;;2.40;;
15573;SDS011;7888;46.748;8.102;2024-01-15T03:00:29;3.93;;;2.70;;
15573;SDS011;7888;46.748;8.102;2024-01-15T03:02:55;2.73;;;2.37;;
15573;SDS011;7888;46.748;8.102;2024-01-15T03:05:21;3.73;;;2.70;;
15573;SDS011;7888;46.748;8.102;2024-01-15T03:07:47;3.07;;;2.77;;
15573;SDS011;7888;46.748;8.102;2024-01-15T03:10:13;3.30;;;2.50;;
15573;SDS011;7888;46.748;8.102;2024-01-15T03:12:39;2.70;;;2.20;;
15573;SDS011;7888;46.748;8.102;2024-01-15T03:15:04;2.60;;;2.20;;
15573;SDS011;7888;46.748;8.102;2024-01-15T03:17:30;2.33;;;2.13;;
15573;SDS011;7888;46.748;8.102;2024-01-15T03:19:56;3.10;;;2.47;;
15573;SDS011;7888;46.748;8.102;2024-01-15T03:22:22;1.97;;;1.77;;
15573;SDS011;7888;46.748;8.102;2024-01-15T03:24:48;2.40;;;2.20;;
15573;SDS011;7888;46.748;8.102;2024-01-15T03:27:14;3.13;;;2.37;;
15573;SDS011;7888;46.748;8.102;2024-01-15T03:29:40;2.53;;;2.20;;
15573;SDS011;7888;46.748;8.102;2024-01-15T03:32:06;3.13;;;2.40;;
15573;SDS011;7888;46.748;8.102;2024-01-15T03:34:32;2.70;;;2.37;;
15573;SDS011;7888;46.748;8.102;2024-01-15T03:36:58;2.30;;;2.10;;
15573;SDS011;7888;46.748;8.102;2024-01-15T03:39:24;2.37;;;1.90;;
15573;SDS011;7888;46.748;8.102;2024-01-15T03:41:50;2.30;;;2.10;;
15573;SDS011;7888;46.748;8.102;2024-01-15T03:44:16;2.53;;;1.90;;
15573;SDS011;7888;46.748;8.102;2024-01-15T03:46:41;2.03;;;1.83;;
15573;SDS011;7888;46.748;8.102;2024-01-15T03:49:07;1.93;;;1.73;;
15573;SDS011;7888;46.748;8.102;2024-01-15T03:51:33;1.77;;;1.53;;
15573;SDS011;7888;46.748;8.102;2024-01-15T03:53:58;1.90;;;1.80;;
15573;SDS011;7888;46.748;8.102;2024-01-15T03:56:24;3.27;;;2.00;;
15573;SDS011;7888;46.748;8.102;2024-01-15T03:58:50;1.87;;;1.73;;
15573;SDS011;7888;46.748;8.102;2024-01-15T04:01:15;1.97;;;1.60;;
15573;SDS011;7888;46.748;8.102;2024-01-15T04:03:41;1.83;;;1.63;;
15573;SDS011;7888;46.748;8.102;2024-01-15T04:06:07;4.57;;;2.70;;
15573;SDS011;7888;46.748;8.102;2024-01-15T04:08:32;2.47;;;2.27;;
15573;SDS011;7888;46.748;8.102;2024-01-15T04:10:58;2.60;;;2.40;;
15573;SDS011;7888;46.748;8.102;2024-01-15T04:13:24;2.60;;;2.30;;
15573;SDS011;7888;46.748;8.102;2024-01-15T04:15:50;2.70;;;2.30;;
15573;SDS011;7888;46.748;8.102;2024-01-15T04:18:16;2.43;;;2.23;;
15573;SDS011;7888;46.748;8.102;2024-01-15T04:20:43;2.87;;;2.60;;
15573;SDS011;7888;46.748;8.102;2024-01-15T04:23:08;4.40;;;3.20;;
15573;SDS011;7888;46.748;8.102;2024-01-15T04:25:34;4.00;;;3.17;;
15573;SDS011;7888;46.748;8.102;2024-01-15T04:28:00;3.20;;;2.90;;
15573;SDS011;7888;46.748;8.102;2024-01-15T04:30:26;3.23;;;2.90;;
15573;SDS011;7888;46.748;8.102;2024-01-15T04:32:51;2.53;;;2.33;;
15573;SDS011;7888;46.748;8.102;2024-01-15T04:35:17;3.30;;;2.40;;
15573;SDS011;7888;46.748;8.102;2024-01-15T04:37:43;2.80;;;2.40;;
15573;SDS011;7888;46.748;8.102;2024-01-15T04:40:09;2.50;;;2.30;;
15573;SDS011;7888;46.748;8.102;2024-01-15T04:42:35;2.87;;;2.63;;
15573;SDS011;7888;46.748;8.102;2024-01-15T04:45:01;3.10;;;2.80;;
15573;SDS011;7888;46.748;8.102;2024-01-15T04:47:27;3.00;;;2.70;;
15573;SDS011;7888;46.748;8.102;2024-01-15T04:49:53;3.33;;;2.80;;
15573;SDS011;7888;46.748;8.102;2024-01-15T04:52:18;3.57;;;2.70;;
15573;SDS011;7888;46.748;8.102;2024-01-15T04:54:44;3.10;;;2.80;;
15573;SDS011;7888;46.748;8.102;2024-01-15T04:57:10;3.30;;;3.00;;
15573;SDS011;7888;46.748;8.102;2024-01-15T04:59:35;4.63;;;3.80;;
15573;SDS011;7888;46.748;8.102;2024-01-15T05:02:01;3.23;;;2.93;;
15573;SDS011;7888;46.748;8.102;2024-01-15T05:04:27;3.63;;;2.80;;
15573;SDS011;7888;46.748;8.102;2024-01-15T05:06:53;3.63;;;3.20;;
15573;SDS011;7888;46.748;8.102;2024-01-15T05:09:20;3.40;;;2.80;;
15573;SDS011;7888;46.748;8.102;2024-01-15T05:11:46;3.20;;;2.90;;
15573;SDS011;7888;46.748;8.102;2024-01-15T05:14:11;3.33;;;2.83;;
15573;SDS011;7888;46.748;8.102;2024-01-15T05:16:47;3.30;;;2.87;;
15573;SDS011;7888;46.748;8.102;2024-01-15T05:19:14;4.03;;;3.03;;
15573;SDS011;7888;46.748;8.102;2024-01-15T05:21:40;3.60;;;3.30;;
15573;SDS011;7888;46.748;8.102;2024-01-15T05:24:06;3.47;;;2.70;;
15573;SDS011;7888;46.748;8.102;2024-01-15T05:26:33;2.90;;;2.47;;
15573;SDS011;7888;46.748;8.102;2024-01-15T05:28:59;2.80;;;2.50;;
15573;SDS011;7888;46.748;8.102;2024-01-15T05:31:24;3.37;;;3.07;;
15573;SDS011;7888;46.748;8.102;2024-01-15T05:33:50;4.83;;;3.70;;
15573;SDS011;7888;46.748;8.102;2024-01-15T05:36:16;3.70;;;3.40;;
15573;SDS011;7888;46.748;8.102;2024-01-15T05:38:42;4.80;;;4.40;;
15573;SDS011;7888;46.748;8.102;2024-01-15T05:41:07;6.00;;;5.50;;
15573;SDS011;7888;46.748;8.102;2024-01-15T05:43:33;3.87;;;3.40;;
15573;SDS011;7888;46.748;8.102;2024-01-15T05:45:59;3.90;;;3.13;;
15573;SDS011;7888;46.748;8.102;2024-01-15T05:48:25;3.50;;;3.17;;
15573;SDS011;7888;46.748;8.102;2024-01-15T05:50:50;3.53;;;2.80;;
15573;SDS011;7888;46.748;8.102;2024-01-15T05:53:16;3.33;;;3.03;;
15573;SDS011;7888;46.748;8.102;2024-01-15T05:55:42;3.87;;;3.47;;
15573;SDS011;7888;46.748;8.102;2024-01-15T05:58:07;4.20;;;3.80;;
15573;SDS011;7888;46.748;8.102;2024-01-15T06:00:33;7.77;;;7.07;;
15573;SDS011;7888;46.748;8.102;2024-01-15T06:03:00;6.60;;;6.00;;
15573;SDS011;7888;46.748;8.102;2024-01-15T06:05:26;5.10;;;4.60;;
15573;SDS011;7888;46.748;8.102;2024-01-15T06:07:52;4.60;;;4.20;;
15573;SDS011;7888;46.748;8.102;2024-01-15T06:10:18;6.33;;;4.50;;
15573;SDS011;7888;46.748;8.102;2024-01-15T06:12:44;3.67;;;3.37;;
15573;SDS011;7888;46.748;8.102;2024-01-15T06:15:10;5.50;;;3.40;;
15573;SDS011;7888;46.748;8.102;2024-01-15T06:17:36;4.13;;;3.33;;
15573;SDS011;7888;46.748;8.102;2024-01-15T06:20:02;4.23;;;3.80;;
15573;SDS011;7888;46.748;8.102;2024-01-15T06:22:29;4.90;;;4.17;;
15573;SDS011;7888;46.748;8.102;2024-01-15T06:24:55;5.93;;;4.83;;
15573;SDS011;7888;46.748;8.102;2024-01-15T06:27:20;5.80;;;5.20;;
15573;SDS011;7888;46.748;8.102;2024-01-15T06:29:47;6.10;;;5.50;;
15573;SDS011;7888;46.748;8.102;2024-01-15T06:32:13;5.90;;;5.33;;
15573;SDS011;7888;46.748;8.102;2024-01-15T06:34:39;5.10;;;4.60;;
15573;SDS011;7888;46.748;8.102;2024-01-15T06:37:04;4.70;;;4.17;;
15573;SDS011;7888;46.748;8.102;2024-01-15T06:39:30;7.43;;;6.53;;
15573;SDS011;7888;46.748;8.102;2024-01-15T06:41:56;6.07;;;5.00;;
15573;SDS011;7888;46.748;8.102;2024-01-15T06:44:22;5.80;;;5.03;;
15573;SDS011;7888;46.748;8.102;2024-01-15T06:46:48;4.43;;;3.90;;
15573;SDS011;7888;46.748;8.102;2024-01-15T06:49:14;3.80;;;3.50;;
15573;SDS011;7888;46.748;8.102;2024-01-15T06:51:40;4.23;;;3.73;;
15573;SDS011;7888;46.748;8.102;2024-01-15T06:54:06;5.53;;;4.37;;
15573;SDS011;7888;46.748;8.102;2024-01-15T06:56:32;3.60;;;3.30;;
15573;SDS011;7888;46.748;8.102;2024-01-15T06:58:58;3.20;;;2.90;;
15573;SDS011;7888;46.748;8.102;2024-01-15T07:01:24;2.20;;;2.00;;
15573;SDS011;7888;46.748;8.102;2024-01-15T07:03:50;2.53;;;2.13;;
15573;SDS011;7888;46.748;8.102;2024-01-15T07:06:15;2.80;;;2.50;;
15573;SDS011;7888;46.748;8.102;2024-01-15T07:08:41;4.03;;;3.47;;
15573;SDS011;7888;46.748;8.102;2024-01-15T07:11:07;3.23;;;2.80;;
15573;SDS011;7888;46.748;8.102;2024-01-15T07:13:33;3.40;;;3.10;;
15573;SDS011;7888;46.748;8.102;2024-01-15T07:16:01;3.23;;;2.90;;
15573;SDS011;7888;46.748;8.102;2024-01-15T07:18:27;3.37;;;3.00;;
15573;SDS011;7888;46.748;8.102;2024-01-15T07:20:56;5.83;;;4.47;;
15573;SDS011;7888;46.748;8.102;2024-01-15T07:23:21;6.30;;;4.57;;
15573;SDS011;7888;46.748;8.102;2024-01-15T07:25:47;7.90;;;5.53;;
15573;SDS011;7888;46.748;8.102;2024-01-15T07:28:13;5.77;;;4.43;;
15573;SDS011;7888;46.748;8.102;2024-01-15T07:30:39;6.23;;;4.60;;
15573;SDS011;7888;46.748;8.102;2024-01-15T07:33:04;5.57;;;4.50;;
15573;SDS011;7888;46.748;8.102;2024-01-15T07:35:30;7.27;;;4.83;;
15573;SDS011;7888;46.748;8.102;2024-01-15T07:37:57;5.30;;;4.13;;
15573;SDS011;7888;46.748;8.102;2024-01-15T07:40:23;9.00;;;5.13;;
15573;SDS011;7888;46.748;8.102;2024-01-15T07:42:49;6.67;;;5.30;;
15573;SDS011;7888;46.748;8.102;2024-01-15T07:45:16;6.80;;;5.13;;
15573;SDS011;7888;46.748;8.102;2024-01-15T07:47:42;6.27;;;5.23;;
15573;SDS011;7888;46.748;8.102;2024-01-15T07:50:09;7.83;;;5.40;;
15573;SDS011;7888;46.748;8.102;2024-01-15T07:52:35;13.20;;;7.67;;
15573;SDS011;7888;46.748;8.102;2024-01-15T07:55:01;6.63;;;4.93;;
15573;SDS011;7888;46.748;8.102;2024-01-15T07:57:30;6.30;;;5.30;;
15573;SDS011;7888;46.748;8.102;2024-01-15T07:59:56;11.50;;;7.90;;
15573;SDS011;7888;46.748;8.102;2024-01-15T08:02:21;9.57;;;7.43;;
15573;SDS011;7888;46.748;8.102;2024-01-15T08:04:47;10.50;;;8.37;;
15573;SDS011;7888;46.748;8.102;2024-01-15T08:07:13;11.73;;;8.40;;
15573;SDS011;7888;46.748;8.102;2024-01-15T08:09:39;13.30;;;9.23;;
15573;SDS011;7888;46.748;8.102;2024-01-15T08:12:04;9.37;;;6.23;;
15573;SDS011;7888;46.748;8.102;2024-01-15T08:14:31;7.43;;;5.77;;
15573;SDS011;7888;46.748;8.102;2024-01-15T08:16:57;6.07;;;4.77;;
15573;SDS011;7888;46.748;8.102;2024-01-15T08:19:23;5.00;;;4.00;;
15573;SDS011;7888;46.748;8.102;2024-01-15T08:21:48;4.73;;;3.90;;
15573;SDS011;7888;46.748;8.102;2024-01-15T08:24:14;4.17;;;3.77;;
15573;SDS011;7888;46.748;8.102;2024-01-15T08:26:41;4.47;;;3.93;;
15573;SDS011;7888;46.748;8.102;2024-01-15T08:29:07;4.90;;;3.80;;
15573;SDS011;7888;46.748;8.102;2024-01-15T08:31:33;4.47;;;4.07;;
15573;SDS011;7888;46.748;8.102;2024-01-15T08:33:59;5.50;;;4.57;;
15573;SDS011;7888;46.748;8.102;2024-01-15T08:36:26;5.47;;;4.53;;
15573;SDS011;7888;46.748;8.102;2024-01-15T08:38:54;5.00;;;4.50;;
15573;SDS011;7888;46.748;8.102;2024-01-15T08:41:20;4.57;;;4.17;;
15573;SDS011;7888;46.748;8.102;2024-01-15T08:43:46;4.60;;;4.00;;
15573;SDS011;7888;46.748;8.102;2024-01-15T08:46:12;4.93;;;3.90;;
15573;SDS011;7888;46.748;8.102;2024-01-15T08:48:37;4.07;;;3.57;;
15573;SDS011;7888;46.748;8.102;2024-01-15T08:51:04;4.30;;;3.87;;
15573;SDS011;7888;46.748;8.102;2024-01-15T08:53:30;5.10;;;3.93;;
15573;SDS011;7888;46.748;8.102;2024-01-15T08:55:57;3.80;;;3.37;;
15573;SDS011;7888;46.748;8.102;2024-01-15T08:58:23;3.70;;;3.23;;
15573;SDS011;7888;46.748;8.102;2024-01-15T09:00:49;4.33;;;3.80;;
15573;SDS011;7888;46.748;8.102;2024-01-15T09:03:16;3.70;;;3.40;;
15573;SDS011;7888;46.748;8.102;2024-01-15T09:05:41;3.97;;;3.50;;
15573;SDS011;7888;46.748;8.102;2024-01-15T09:08:08;8.07;;;6.13;;
15573;SDS011;7888;46.748;8.102;2024-01-15T09:10:34;9.50;;;7.73;;
15573;SDS011;7888;46.748;8.102;2024-01-15T09:13:00;12.93;;;11.57;;
15573;SDS011;7888;46.748;8.102;2024-01-15T09:15:25;11.67;;;8.97;;
15573;SDS011;7888;46.748;8.102;2024-01-15T09:17:51;12.50;;;10.13;;
15573;SDS011;7888;46.748;8.102;2024-01-15T09:20:17;10.80;;;8.90;;
15573;SDS011;7888;46.748;8.102;2024-01-15T09:22:43;15.27;;;8.87;;
15573;SDS011;7888;46.748;8.102;2024-01-15T09:25:09;8.67;;;7.63;;
15573;SDS011;7888;46.748;8.102;2024-01-15T09:27:35;8.13;;;7.33;;
15573;SDS011;7888;46.748;8.102;2024-01-15T09:30:02;9.57;;;8.27;;
15573;SDS011;7888;46.748;8.102;2024-01-15T09:32:29;12.10;;;10.20;;
15573;SDS011;7888;46.748;8.102;2024-01-15T09:34:55;13.20;;;11.20;;
15573;SDS011;7888;46.748;8.102;2024-01-15T09:37:21;13.03;;;11.13;;
15573;SDS011;7888;46.748;8.102;2024-01-15T09:39:48;13.33;;;11.93;;
15573;SDS011;7888;46.748;8.102;2024-01-15T09:42:15;10.63;;;9.40;;
15573;SDS011;7888;46.748;8.102;2024-01-15T09:44:41;9.93;;;8.57;;
15573;SDS011;7888;46.748;8.102;2024-01-15T09:47:07;9.13;;;7.47;;
15573;SDS011;7888;46.748;8.102;2024-01-15T09:49:34;8.07;;;7.27;;
15573;SDS011;7888;46.748;8.102;2024-01-15T09:52:00;6.93;;;6.23;;
15573;SDS011;7888;46.748;8.102;2024-01-15T09:54:27;6.80;;;6.03;;
15573;SDS011;7888;46.748;8.102;2024-01-15T09:56:53;5.53;;;5.00;;
15573;SDS011;7888;46.748;8.102;2024-01-15T09:59:20;4.70;;;4.27;;
15573;SDS011;7888;46.748;8.102;2024-01-15T10:01:50;5.77;;;3.90;;
15573;SDS011;7888;46.748;8.102;2024-01-15T10:04:17;5.07;;;4.57;;
15573;SDS011;7888;46.748;8.102;2024-01-15T10:06:44;4.70;;;4.30;;
15573;SDS011;7888;46.748;8.102;2024-01-15T10:09:14;4.20;;;3.80;;
15573;SDS011;7888;46.748;8.102;2024-01-15T10:11:41;4.80;;;3.93;;
15573;SDS011;7888;46.748;8.102;2024-01-15T10:14:08;5.83;;;4.90;;
15573;SDS011;7888;46.748;8.102;2024-01-15T10:16:39;5.57;;;5.07;;
15573;SDS011;7888;46.748;8.102;2024-01-15T10:19:05;7.03;;;6.23;;
15573;SDS011;7888;46.748;8.102;2024-01-15T10:21:32;8.07;;;7.20;;
15573;SDS011;7888;46.748;8.102;2024-01-15T10:24:01;8.70;;;7.80;;
15573;SDS011;7888;46.748;8.102;2024-01-15T10:26:29;7.13;;;5.97;;
15573;SDS011;7888;46.748;8.102;2024-01-15T10:28:57;5.10;;;4.57;;
15573;SDS011;7888;46.748;8.102;2024-01-15T10:31:23;6.63;;;5.90;;
15573;SDS011;7888;46.748;8.102;2024-01-15T10:33:50;5.70;;;4.80;;
15573;SDS011;7888;46.748;8.102;2024-01-15T10:36:16;5.40;;;4.90;;
15573;SDS011;7888;46.748;8.102;2024-01-15T10:38:42;5.17;;;4.67;;
15573;SDS011;7888;46.748;8.102;2024-01-15T10:41:09;6.40;;;4.53;;
15573;SDS011;7888;46.748;8.102;2024-01-15T10:43:36;4.80;;;4.13;;
15573;SDS011;7888;46.748;8.102;2024-01-15T10:46:02;5.23;;;4.23;;
15573;SDS011;7888;46.748;8.102;2024-01-15T10:48:28;4.83;;;4.23;;
15573;SDS011;7888;46.748;8.102;2024-01-15T10:50:56;4.60;;;4.20;;
15573;SDS011;7888;46.748;8.102;2024-01-15T10:53:25;4.47;;;3.90;;
15573;SDS011;7888;46.748;8.102;2024-01-15T10:55:53;5.30;;;4.50;;
15573;SDS011;7888;46.748;8.102;2024-01-15T10:58:20;5.77;;;3.90;;
15573;SDS011;7888;46.748;8.102;2024-01-15T11:00:46;4.30;;;3.90;;
15573;SDS011;7888;46.748;8.102;2024-01-15T11:03:12;6.03;;;5.03;;
15573;SDS011;7888;46.748;8.102;2024-01-15T11:05:38;11.90;;;7.30;;
15573;SDS011;7888;46.748;8.102;2024-01-15T11:08:08;7.70;;;4.80;;
15573;SDS011;7888;46.748;8.102;2024-01-15T11:10:37;4.83;;;3.93;;
15573;SDS011;7888;46.748;8.102;2024-01-15T11:13:03;4.73;;;4.33;;
15573;SDS011;7888;46.748;8.102;2024-01-15T11:15:30;4.60;;;4.20;;
15573;SDS011;7888;46.748;8.102;2024-01-15T11:17:59;4.93;;;4.43;;
15573;SDS011;7888;46.748;8.102;2024-01-15T11:20:28;5.77;;;4.80;;
15573;SDS011;7888;46.748;8.102;2024-01-15T11:22:55;5.80;;;5.10;;
15573;SDS011;7888;46.748;8.102;2024-01-15T11:25:22;4.87;;;4.43;;
15573;SDS011;7888;46.748;8.102;2024-01-15T11:27:52;5.40;;;4.30;;
15573;SDS011;7888;46.748;8.102;2024-01-15T11:30:18;5.80;;;4.67;;
15573;SDS011;7888;46.748;8.102;2024-01-15T11:32:45;5.20;;;4.70;;
15573;SDS011;7888;46.748;8.102;2024-01-15T11:35:11;5.87;;;4.80;;
15573;SDS011;7888;46.748;8.102;2024-01-15T11:43:00;26.77;;;6.87;;
15573;SDS011;7888;46.748;8.102;2024-01-15T11:45:28;7.20;;;6.33;;
15573;SDS011;7888;46.748;8.102;2024-01-15T11:50:41;6.60;;;5.50;;
15573;SDS011;7888;46.748;8.102;2024-01-15T11:53:13;5.37;;;4.87;;
15573;SDS011;7888;46.748;8.102;2024-01-15T11:56:20;6.10;;;5.00;;
15573;SDS011;7888;46.748;8.102;2024-01-15T11:58:48;5.57;;;5.07;;
15573;SDS011;7888;46.748;8.102;2024-01-15T12:01:15;6.10;;;4.63;;
15573;SDS011;7888;46.748;8.102;2024-01-15T12:03:42;6.03;;;5.13;;
15573;SDS011;7888;46.748;8.102;2024-01-15T12:06:09;6.23;;;5.43;;
15573;SDS011;7888;46.748;8.102;2024-01-15T12:08:36;8.23;;;6.23;;
15573;SDS011;7888;46.748;8.102;2024-01-15T12:11:05;6.00;;;5.20;;
15573;SDS011;7888;46.748;8.102;2024-01-15T12:13:38;7.53;;;5.50;;
15573;SDS011;7888;46.748;8.102;2024-01-15T12:16:04;7.93;;;6.50;;
15573;SDS011;7888;46.748;8.102;2024-01-15T12:18:30;7.07;;;5.73;;
15573;SDS011;7888;46.748;8.102;2024-01-15T12:20:56;7.93;;;5.53;;
15573;SDS011;7888;46.748;8.102;2024-01-15T12:23:24;6.80;;;5.73;;
15573;SDS011;7888;46.748;8.102;2024-01-15T12:25:49;8.10;;;6.00;;
15573;SDS011;7888;46.748;8.102;2024-01-15T12:28:15;6.70;;;5.60;;
15573;SDS011;7888;46.748;8.102;2024-01-15T12:30:41;7.53;;;5.70;;
15573;SDS011;7888;46.748;8.102;2024-01-15T12:33:07;6.67;;;5.67;;
15573;SDS011;7888;46.748;8.102;2024-01-15T12:35:33;7.73;;;5.80;;
15573;SDS011;7888;46.748;8.102;2024-01-15T12:38:00;8.10;;;6.33;;
15573;SDS011;7888;46.748;8.102;2024-01-15T12:40:30;14.77;;;10.13;;
15573;SDS011;7888;46.748;8.102;2024-01-15T12:42:57;19.63;;;11.37;;
15573;SDS011;7888;46.748;8.102;2024-01-15T12:45:23;21.77;;;12.57;;
15573;SDS011;7888;46.748;8.102;2024-01-15T12:47:49;19.27;;;10.80;;
15573;SDS011;7888;46.748;8.102;2024-01-15T12:50:16;16.57;;;10.03;;
15573;SDS011;7888;46.748;8.102;2024-01-15T12:52:42;13.93;;;8.50;;
15573;SDS011;7888;46.748;8.102;2024-01-15T12:55:08;8.73;;;6.57;;
15573;SDS011;7888;46.748;8.102;2024-01-15T12:57:35;8.83;;;6.57;;
15573;SDS011;7888;46.748;8.102;2024-01-15T13:00:02;7.07;;;5.73;;
15573;SDS011;7888;46.748;8.102;2024-01-15T13:02:39;6.37;;;5.43;;
15573;SDS011;7888;46.748;8.102;2024-01-15T13:05:07;7.33;;;5.60;;
15573;SDS011;7888;46.748;8.102;2024-01-15T13:07:36;6.97;;;4.97;;
15573;SDS011;7888;46.748;8.102;2024-01-15T13:10:02;6.73;;;5.73;;
15573;SDS011;7888;46.748;8.102;2024-01-15T13:12:28;6.57;;;5.87;;
15573;SDS011;7888;46.748;8.102;2024-01-15T13:14:54;6.40;;;5.20;;
15573;SDS011;7888;46.748;8.102;2024-01-15T13:17:20;7.30;;;5.50;;
15573;SDS011;7888;46.748;8.102;2024-01-15T13:19:48;6.00;;;5.40;;
15573;SDS011;7888;46.748;8.102;2024-01-15T13:22:14;6.50;;;5.03;;
15573;SDS011;7888;46.748;8.102;2024-01-15T13:24:40;6.37;;;5.40;;
15573;SDS011;7888;46.748;8.102;2024-01-15T13:27:07;8.20;;;5.50;;
15573;SDS011;7888;46.748;8.102;2024-01-15T13:29:33;6.53;;;5.70;;
15573;SDS011;7888;46.748;8.102;2024-01-15T13:31:59;6.27;;;5.57;;
15573;SDS011;7888;46.748;8.102;2024-01-15T13:34:25;5.50;;;4.83;;
15573;SDS011;7888;46.748;8.102;2024-01-15T13:36:51;5.60;;;4.60;;
15573;SDS011;7888;46.748;8.102;2024-01-15T13:39:18;6.83;;;4.80;;
15573;SDS011;7888;46.748;8.102;2024-01-15T13:41:48;16.37;;;9.60;;
15573;SDS011;7888;46.748;8.102;2024-01-15T13:44:14;14.67;;;8.37;;
15573;SDS011;7888;46.748;8.102;2024-01-15T13:46:40;14.07;;;8.17;;
15573;SDS011;7888;46.748;8.102;2024-01-15T13:49:06;10.37;;;7.47;;
15573;SDS011;7888;46.748;8.102;2024-01-15T13:51:34;11.67;;;7.43;;
15573;SDS011;7888;46.748;8.102;2024-01-15T13:54:01;7.83;;;5.70;;
15573;SDS011;7888;46.748;8.102;2024-01-15T13:56:29;7.93;;;5.80;;
15573;SDS011;7888;46.748;8.102;2024-01-15T13:58:57;5.83;;;5.20;;
15573;SDS011;7888;46.748;8.102;2024-01-15T14:01:24;6.63;;;5.37;;
15573;SDS011;7888;46.748;8.102;2024-01-15T14:03:51;6.70;;;5.37;;
15573;SDS011;7888;46.748;8.102;2024-01-15T14:06:18;22.43;;;6.53;;
15573;SDS011;7888;46.748;8.102;2024-01-15T14:08:44;6.80;;;5.30;;
15573;SDS011;7888;46.748;8.102;2024-01-15T14:11:09;6.70;;;5.77;;
15573;SDS011;7888;46.748;8.102;2024-01-15T14:13:35;8.27;;;6.13;;
15573;SDS011;7888;46.748;8.102;2024-01-15T14:16:01;7.30;;;5.80;;
15573;SDS011;7888;46.748;8.102;2024-01-15T14:18:27;6.90;;;5.17;;
15573;SDS011;7888;46.748;8.102;2024-01-15T14:20:53;5.70;;;4.00;;
15573;SDS011;7888;46.748;8.102;2024-01-15T14:23:19;4.83;;;3.70;;
15573;SDS011;7888;46.748;8.102;2024-01-15T14:25:46;3.60;;;2.93;;
15573;SDS011;7888;46.748;8.102;2024-01-15T14:28:11;4.37;;;2.80;;
15573;SDS011;7888;46.748;8.102;2024-01-15T14:30:37;3.23;;;2.23;;
15573;SDS011;7888;46.748;8.102;2024-01-15T14:33:03;2.93;;;2.43;;
15573;SDS011;7888;46.748;8.102;2024-01-15T14:35:29;3.30;;;2.67;;
15573;SDS011;7888;46.748;8.102;2024-01-15T14:37:55;2.60;;;1.93;;
15573;SDS011;7888;46.748;8.102;2024-01-15T14:40:23;2.20;;;1.90;;
15573;SDS011;7888;46.748;8.102;2024-01-15T14:42:50;2.83;;;2.20;;
15573;SDS011;7888;46.748;8.102;2024-01-15T14:45:16;3.40;;;2.37;;
15573;SDS011;7888;46.748;8.102;2024-01-15T14:47:42;3.40;;;2.77;;
15573;SDS011;7888;46.748;8.102;2024-01-15T14:50:09;4.27;;;3.50;;
15573;SDS011;7888;46.748;8.102;2024-01-15T14:52:35;5.27;;;3.70;;
15573;SDS011;7888;46.748;8.102;2024-01-15T14:55:01;5.33;;;3.10;;
15573;SDS011;7888;46.748;8.102;2024-01-15T14:57:27;3.37;;;2.33;;
15573;SDS011;7888;46.748;8.102;2024-01-15T14:59:54;3.27;;;2.30;;
15573;SDS011;7888;46.748;8.102;2024-01-15T15:02:20;2.70;;;2.00;;
15573;SDS011;7888;46.748;8.102;2024-01-15T15:04:46;3.03;;;2.60;;